Time;durP1;ratioP1;P1;durP2;ratioP2;P2;SDS_P1;SDS_P2;PMS_P1;PMS_P2;Temp;Humidity;BMP_temperature;BMP_pressure;BME280_temperature;BME280_humidity;BME280_pressure;Samples;Min_cycle;Max_cycle;Signal;HPM_P1;HPM_P2
2023/07/11 00:00:14;;;;;;;10.55;2.22;;;;;;;;;;5015425;28;94529;-72
2023/07/11 00:02:42;;;;;;;6.65;2.33;;;;;;;;;;5015484;28;92466;-72
2023/07/11 00:05:11;;;;;;;8.32;2.80;;;;;;;;;;5015718;28;92441;-72
2023/07/11 00:07:37;;;;;;;5.63;2.50;;;;;;;;;;5014817;28;93442;-73
2023/07/11 00:10:04;;;;;;;5.35;1.88;;;;;;;;;;5018410;28;92439;-72
2023/07/11 00:12:30;;;;;;;8.48;2.40;;;;;;;;;;5014292;28;93774;-73
2023/07/11 00:14:57;;;;;;;12.52;2.50;;;;;;;;;;5015348;28;92500;-73
2023/07/11 00:17:23;;;;;;;9.18;2.53;;;;;;;;;;5015537;28;93305;-72
2023/07/11 00:19:51;;;;;;;7.20;2.55;;;;;;;;;;5013317;28;95904;-73
2023/07/11 00:22:18;;;;;;;9.75;2.55;;;;;;;;;;5015389;28;93403;-73
2023/07/11 00:24:45;;;;;;;10.60;2.25;;;;;;;;;;5015022;28;92463;-72
2023/07/11 00:27:11;;;;;;;6.43;2.20;;;;;;;;;;5014539;28;93457;-73
2023/07/11 00:29:38;;;;;;;6.72;2.60;;;;;;;;;;5015407;28;92380;-72
2023/07/11 00:32:05;;;;;;;3.60;1.70;;;;;;;;;;5017955;28;93514;-72
2023/07/11 00:34:31;;;;;;;9.48;2.45;;;;;;;;;;5015005;28;92400;-72
2023/07/11 00:36:58;;;;;;;12.10;2.70;;;;;;;;;;5015062;28;93134;-73
2023/07/11 00:39:26;;;;;;;4.15;2.15;;;;;;;;;;5014256;28;93412;-72
2023/07/11 00:41:53;;;;;;;5.53;2.53;;;;;;;;;;5014735;28;92707;-72
2023/07/11 00:44:20;;;;;;;6.88;2.38;;;;;;;;;;5013102;28;94808;-72
2023/07/11 00:46:46;;;;;;;4.97;2.10;;;;;;;;;;5008054;28;94481;-73
2023/07/11 00:49:17;;;;;;;13.90;2.63;;;;;;;;;;4994961;28;92432;-72
2023/07/11 00:51:59;;;;;;;4.88;2.20;;;;;;;;;;4993620;28;94256;-72
2023/07/11 00:54:29;;;;;;;7.18;2.08;;;;;;;;;;4996481;28;94853;-72
2023/07/11 00:56:56;;;;;;;7.67;2.67;;;;;;;;;;4994458;28;93087;-72
2023/07/11 00:59:23;;;;;;;11.52;2.35;;;;;;;;;;4994169;28;93507;-72
2023/07/11 01:01:54;;;;;;;5.38;2.30;;;;;;;;;;4995129;28;91927;-72
2023/07/11 01:04:21;;;;;;;7.35;2.30;;;;;;;;;;4994661;28;93604;-72
2023/07/11 01:06:47;;;;;;;6.85;1.88;;;;;;;;;;4994153;28;93601;-72
2023/07/11 01:09:14;;;;;;;9.30;2.70;;;;;;;;;;4993204;28;94762;-72
2023/07/11 01:11:54;;;;;;;6.40;2.15;;;;;;;;;;4994531;28;95689;-72
2023/07/11 01:14:21;;;;;;;4.20;2.30;;;;;;;;;;5009645;28;93611;-73
2023/07/11 01:16:47;;;;;;;6.93;2.15;;;;;;;;;;5017268;28;93114;-73
2023/07/11 01:19:14;;;;;;;11.25;2.42;;;;;;;;;;5014407;28;93600;-72
2023/07/11 01:21:40;;;;;;;5.68;2.13;;;;;;;;;;5014269;28;92655;-73
2023/07/11 01:24:07;;;;;;;10.57;2.50;;;;;;;;;;5014394;28;94176;-73
2023/07/11 01:26:33;;;;;;;12.13;2.88;;;;;;;;;;5014709;28;91748;-73
2023/07/11 01:29:00;;;;;;;14.48;2.25;;;;;;;;;;5013179;28;92526;-72
2023/07/11 01:31:26;;;;;;;5.05;2.40;;;;;;;;;;5012856;28;93445;-72
2023/07/11 01:33:52;;;;;;;6.43;2.40;;;;;;;;;;5010937;28;96799;-72
2023/07/11 01:36:19;;;;;;;7.97;2.58;;;;;;;;;;5014225;28;92617;-72
2023/07/11 01:38:45;;;;;;;9.50;2.50;;;;;;;;;;5015891;28;93147;-72
2023/07/11 01:41:11;;;;;;;9.35;2.60;;;;;;;;;;5014450;28;92525;-72
2023/07/11 01:43:38;;;;;;;7.63;2.03;;;;;;;;;;5014143;28;93644;-72
2023/07/11 01:46:05;;;;;;;5.65;2.22;;;;;;;;;;5013689;28;93350;-72
2023/07/11 01:48:32;;;;;;;8.57;2.03;;;;;;;;;;5013780;28;92507;-72
2023/07/11 01:50:58;;;;;;;9.40;2.80;;;;;;;;;;5014667;28;93376;-72
2023/07/11 01:53:24;;;;;;;8.38;2.55;;;;;;;;;;5017175;28;93659;-72
2023/07/11 01:55:55;;;;;;;3.85;2.20;;;;;;;;;;5017523;28;92380;-72
2023/07/11 01:58:21;;;;;;;5.20;2.80;;;;;;;;;;5018337;28;94777;-72
2023/07/11 02:00:47;;;;;;;7.22;2.33;;;;;;;;;;5017344;28;92474;-72
2023/07/11 02:03:14;;;;;;;6.57;2.28;;;;;;;;;;5017488;28;94255;-72
2023/07/11 02:05:41;;;;;;;9.43;2.70;;;;;;;;;;5017383;28;94369;-73
2023/07/11 02:08:07;;;;;;;7.38;2.38;;;;;;;;;;5017301;28;92472;-72
2023/07/11 02:10:34;;;;;;;8.68;2.80;;;;;;;;;;5017057;28;93261;-72
2023/07/11 02:13:00;;;;;;;6.53;2.60;;;;;;;;;;5016593;28;94410;-72
2023/07/11 02:15:27;;;;;;;3.85;2.17;;;;;;;;;;5017700;28;91685;-72
2023/07/11 02:17:53;;;;;;;7.00;2.88;;;;;;;;;;5016138;28;92626;-72
2023/07/11 02:20:20;;;;;;;10.63;2.40;;;;;;;;;;5020159;28;93387;-72
2023/07/11 02:22:46;;;;;;;8.48;2.72;;;;;;;;;;5015478;28;94762;-72
2023/07/11 02:25:13;;;;;;;8.55;2.22;;;;;;;;;;5016693;28;93976;-72
2023/07/11 02:27:39;;;;;;;7.65;2.75;;;;;;;;;;5016731;28;92455;-72
2023/07/11 02:30:06;;;;;;;11.45;2.70;;;;;;;;;;5016670;28;93139;-72
2023/07/11 02:32:32;;;;;;;5.80;2.30;;;;;;;;;;5016756;28;94562;-72
2023/07/11 02:34:59;;;;;;;10.18;2.70;;;;;;;;;;5016747;28;92919;-72
2023/07/11 02:37:25;;;;;;;9.27;2.90;;;;;;;;;;5016725;28;92573;-72
2023/07/11 02:39:51;;;;;;;11.07;2.28;;;;;;;;;;5016858;28;92573;-72
2023/07/11 02:42:18;;;;;;;15.45;2.95;;;;;;;;;;5018682;28;92477;-72
2023/07/11 02:44:44;;;;;;;9.43;3.03;;;;;;;;;;5016239;28;93784;-72
2023/07/11 02:47:11;;;;;;;9.80;2.85;;;;;;;;;;5015298;28;95102;-72
2023/07/11 02:49:38;;;;;;;5.72;2.78;;;;;;;;;;5016591;28;95431;-72
2023/07/11 02:52:06;;;;;;;3.50;2.33;;;;;;;;;;5015398;28;92620;-72
2023/07/11 02:54:32;;;;;;;11.00;3.20;;;;;;;;;;5016287;28;92453;-72
2023/07/11 02:56:59;;;;;;;3.88;2.13;;;;;;;;;;5016584;28;93287;-72
2023/07/11 02:59:25;;;;;;;15.95;3.05;;;;;;;;;;5016239;28;93518;-72
2023/07/11 03:01:51;;;;;;;7.45;2.55;;;;;;;;;;5014682;28;92449;-72
2023/07/11 03:04:17;;;;;;;4.70;2.60;;;;;;;;;;5019809;28;92913;-72
2023/07/11 03:06:44;;;;;;;4.15;2.72;;;;;;;;;;5016496;28;92497;-72
2023/07/11 03:09:10;;;;;;;11.10;3.00;;;;;;;;;;5016045;28;93160;-72
2023/07/11 03:11:37;;;;;;;7.13;2.78;;;;;;;;;;5013415;28;96843;-72
2023/07/11 03:14:03;;;;;;;7.68;2.83;;;;;;;;;;5016058;28;93566;-72
2023/07/11 03:16:29;;;;;;;7.93;2.88;;;;;;;;;;5016573;28;93182;-71
2023/07/11 03:18:56;;;;;;;6.55;2.95;;;;;;;;;;5016296;28;93417;-72
2023/07/11 03:21:22;;;;;;;11.55;3.40;;;;;;;;;;5014889;28;92613;-72
2023/07/11 03:23:48;;;;;;;2.88;2.53;;;;;;;;;;5015949;28;93340;-72
2023/07/11 03:26:15;;;;;;;15.52;3.00;;;;;;;;;;5018914;28;93705;-72
2023/07/11 03:28:42;;;;;;;4.63;2.40;;;;;;;;;;5016392;28;93298;-72
2023/07/11 03:31:08;;;;;;;6.75;2.90;;;;;;;;;;5015683;28;93460;-72
2023/07/11 03:33:35;;;;;;;5.95;2.50;;;;;;;;;;5015865;28;92466;-72
2023/07/11 03:36:01;;;;;;;8.63;2.72;;;;;;;;;;5014361;28;94849;-72
2023/07/11 03:38:27;;;;;;;6.53;2.67;;;;;;;;;;5015266;28;93729;-72
2023/07/11 03:40:54;;;;;;;3.97;2.55;;;;;;;;;;5015816;28;92407;-72
2023/07/11 03:43:20;;;;;;;4.63;2.83;;;;;;;;;;5015657;28;93194;-72
2023/07/11 03:45:47;;;;;;;10.20;2.92;;;;;;;;;;5015474;28;93755;-72
2023/07/11 03:48:16;;;;;;;13.82;2.85;;;;;;;;;;5018260;28;92408;-72
2023/07/11 03:50:43;;;;;;;5.75;2.80;;;;;;;;;;5015394;28;93498;-72
2023/07/11 03:53:09;;;;;;;6.53;3.22;;;;;;;;;;5016175;28;91701;-72
2023/07/11 03:55:35;;;;;;;5.90;2.67;;;;;;;;;;5015029;28;92883;-72
2023/07/11 03:58:02;;;;;;;11.50;3.35;;;;;;;;;;5015193;28;93413;-72
2023/07/11 04:00:28;;;;;;;8.95;2.90;;;;;;;;;;5013570;28;94806;-71
2023/07/11 04:02:55;;;;;;;6.65;3.00;;;;;;;;;;5015465;28;96702;-72
2023/07/11 04:05:21;;;;;;;5.43;2.80;;;;;;;;;;5014741;28;93402;-73
2023/07/11 04:07:48;;;;;;;8.13;3.53;;;;;;;;;;5017124;28;92530;-72
2023/07/11 04:10:14;;;;;;;6.68;2.88;;;;;;;;;;5015042;28;93722;-72
2023/07/11 04:12:40;;;;;;;7.75;2.70;;;;;;;;;;5014483;28;92422;-72
2023/07/11 04:15:07;;;;;;;10.25;3.08;;;;;;;;;;5014738;28;94236;-72
2023/07/11 04:17:33;;;;;;;6.65;3.72;;;;;;;;;;5015603;28;92666;-72
2023/07/11 04:20:00;;;;;;;9.82;3.50;;;;;;;;;;5014731;28;92501;-73
2023/07/11 04:22:26;;;;;;;14.43;3.58;;;;;;;;;;5014963;28;93518;-72
2023/07/11 04:24:52;;;;;;;10.70;3.70;;;;;;;;;;5011912;28;96196;-72
2023/07/11 04:27:19;;;;;;;12.60;4.00;;;;;;;;;;5014566;28;92462;-72
2023/07/11 04:29:45;;;;;;;9.20;4.28;;;;;;;;;;5017839;28;93228;-72
2023/07/11 04:32:11;;;;;;;21.63;4.25;;;;;;;;;;5014636;28;92460;-73
2023/07/11 04:34:38;;;;;;;6.78;4.07;;;;;;;;;;5014238;28;93239;-73
2023/07/11 04:37:04;;;;;;;4.70;3.65;;;;;;;;;;5014509;28;93479;-72
2023/07/11 04:39:31;;;;;;;8.75;3.75;;;;;;;;;;5014875;28;92475;-72
2023/07/11 04:41:57;;;;;;;4.82;4.03;;;;;;;;;;5015097;28;92983;-72
2023/07/11 04:44:23;;;;;;;8.52;3.85;;;;;;;;;;5014085;28;93852;-72
2023/07/11 04:46:50;;;;;;;5.32;3.80;;;;;;;;;;5015273;28;92411;-72
2023/07/11 04:49:16;;;;;;;7.68;3.92;;;;;;;;;;5012856;28;95006;-72
2023/07/11 04:51:42;;;;;;;11.95;4.30;;;;;;;;;;5017384;28;93594;-72
2023/07/11 04:54:09;;;;;;;5.97;3.88;;;;;;;;;;5014333;28;93012;-72
2023/07/11 04:56:38;;;;;;;15.85;4.40;;;;;;;;;;5014241;28;92531;-72
2023/07/11 04:59:04;;;;;;;10.27;4.75;;;;;;;;;;5014420;28;92437;-72
2023/07/11 05:01:31;;;;;;;13.40;5.28;;;;;;;;;;5014352;28;93187;-72
2023/07/11 05:03:58;;;;;;;16.60;5.40;;;;;;;;;;5013930;28;93620;-72
2023/07/11 05:06:24;;;;;;;21.30;5.32;;;;;;;;;;5014883;28;91734;-72
2023/07/11 05:08:51;;;;;;;7.18;5.07;;;;;;;;;;5014346;28;92879;-72
2023/07/11 05:11:20;;;;;;;15.93;6.10;;;;;;;;;;5014168;28;93463;-72
2023/07/11 05:13:47;;;;;;;22.33;6.00;;;;;;;;;;5015547;28;94814;-72
2023/07/11 05:16:16;;;;;;;9.38;5.80;;;;;;;;;;5014454;28;93362;-73
2023/07/11 05:18:43;;;;;;;10.48;5.43;;;;;;;;;;5014452;28;92428;-72
2023/07/11 05:21:12;;;;;;;12.23;6.22;;;;;;;;;;5014126;28;92363;-72
2023/07/11 05:23:38;;;;;;;15.32;6.25;;;;;;;;;;5014185;28;93526;-72
2023/07/11 05:26:05;;;;;;;14.38;6.90;;;;;;;;;;5013598;28;92493;-72
2023/07/11 05:28:32;;;;;;;12.40;7.15;;;;;;;;;;5013777;28;92879;-72
2023/07/11 05:31:02;;;;;;;15.68;7.38;;;;;;;;;;5014303;28;92872;-72
2023/07/11 05:33:29;;;;;;;18.95;7.50;;;;;;;;;;5014157;28;92409;-72
2023/07/11 05:36:13;;;;;;;26.48;7.35;;;;;;;;;;5016598;28;93307;-72
2023/07/11 05:38:39;;;;;;;19.98;7.07;;;;;;;;;;5012218;28;94839;-72
2023/07/11 05:41:06;;;;;;;14.27;7.10;;;;;;;;;;5013778;28;95783;-72
2023/07/11 05:43:32;;;;;;;13.88;7.20;;;;;;;;;;5013523;28;93259;-72
2023/07/11 05:45:58;;;;;;;15.43;7.90;;;;;;;;;;5013867;28;92463;-72
2023/07/11 05:48:24;;;;;;;15.65;7.10;;;;;;;;;;4992708;28;92485;-72
2023/07/11 05:50:58;;;;;;;14.57;7.78;;;;;;;;;;4993501;28;92840;-72
2023/07/11 05:53:25;;;;;;;16.75;6.97;;;;;;;;;;4993844;28;92528;-72
2023/07/11 05:55:55;;;;;;;14.20;7.37;;;;;;;;;;4995431;28;93322;-72
2023/07/11 05:58:21;;;;;;;15.40;7.47;;;;;;;;;;4993853;28;92399;-72
2023/07/11 06:00:50;;;;;;;20.35;7.15;;;;;;;;;;4993709;28;93250;-72
2023/07/11 06:03:17;;;;;;;13.87;7.40;;;;;;;;;;4991624;28;95838;-72
2023/07/11 06:05:44;;;;;;;18.98;7.80;;;;;;;;;;4993702;28;92425;-72
2023/07/11 06:08:12;;;;;;;14.00;6.63;;;;;;;;;;4993418;28;93232;-72
2023/07/11 06:10:39;;;;;;;12.23;7.00;;;;;;;;;;4991914;28;93626;-72
2023/07/11 06:13:05;;;;;;;13.43;7.30;;;;;;;;;;4998883;28;92487;-72
2023/07/11 06:15:31;;;;;;;11.05;7.10;;;;;;;;;;5013380;28;93221;-72
2023/07/11 06:17:58;;;;;;;11.93;6.63;;;;;;;;;;5014815;28;93466;-72
2023/07/11 06:20:24;;;;;;;13.30;6.57;;;;;;;;;;5014022;28;93328;-72
2023/07/11 06:22:51;;;;;;;14.50;6.75;;;;;;;;;;5013140;28;93693;-73
2023/07/11 06:25:17;;;;;;;23.92;7.50;;;;;;;;;;5013212;28;92716;-73
2023/07/11 06:27:43;;;;;;;12.73;5.78;;;;;;;;;;5011845;28;96691;-72
2023/07/11 06:30:10;;;;;;;11.25;5.35;;;;;;;;;;5012824;28;93498;-72
2023/07/11 06:32:36;;;;;;;9.23;5.13;;;;;;;;;;5013280;28;92451;-72
2023/07/11 06:35:03;;;;;;;9.60;4.95;;;;;;;;;;5012963;28;93534;-73
2023/07/11 06:37:29;;;;;;;11.13;4.90;;;;;;;;;;5013718;28;94443;-72
2023/07/11 06:39:56;;;;;;;10.93;5.00;;;;;;;;;;5019964;28;92783;-72
2023/07/11 06:42:22;;;;;;;23.67;4.53;;;;;;;;;;5016348;28;94551;-73
2023/07/11 06:44:48;;;;;;;12.82;4.78;;;;;;;;;;5016609;28;91659;-73
2023/07/11 06:47:15;;;;;;;11.57;4.15;;;;;;;;;;5016660;28;92469;-73
2023/07/11 06:49:43;;;;;;;8.50;3.85;;;;;;;;;;5016252;28;93752;-73
2023/07/11 06:52:10;;;;;;;10.45;3.85;;;;;;;;;;5014790;28;95034;-74
2023/07/11 06:54:36;;;;;;;11.77;3.83;;;;;;;;;;5016253;28;96146;-74
2023/07/11 06:57:03;;;;;;;6.78;3.75;;;;;;;;;;5016045;28;93646;-74
2023/07/11 06:59:29;;;;;;;9.55;4.20;;;;;;;;;;5016463;28;92869;-74
2023/07/11 07:01:55;;;;;;;20.17;4.15;;;;;;;;;;5018890;28;93092;-73
2023/07/11 07:04:22;;;;;;;14.57;3.92;;;;;;;;;;5016327;28;92465;-74
2023/07/11 07:06:48;;;;;;;15.27;4.20;;;;;;;;;;5015869;28;93226;-74
2023/07/11 07:09:15;;;;;;;8.75;3.65;;;;;;;;;;5016774;28;92713;-73
2023/07/11 07:11:41;;;;;;;14.50;4.18;;;;;;;;;;5016337;28;92552;-73
2023/07/11 07:14:08;;;;;;;11.32;3.60;;;;;;;;;;5016085;28;93064;-73
2023/07/11 07:16:36;;;;;;;8.45;4.10;;;;;;;;;;5014335;28;95873;-73
2023/07/11 07:19:03;;;;;;;13.80;3.75;;;;;;;;;;5015927;28;92465;-73
2023/07/11 07:21:30;;;;;;;12.57;3.17;;;;;;;;;;5015740;28;93419;-73
2023/07/11 07:23:56;;;;;;;25.98;4.10;;;;;;;;;;5018839;28;93614;-73
2023/07/11 07:26:23;;;;;;;9.15;3.10;;;;;;;;;;5015378;28;93225;-73
2023/07/11 07:28:50;;;;;;;25.33;3.75;;;;;;;;;;5015478;28;93187;-73
2023/07/11 07:31:17;;;;;;;17.20;3.08;;;;;;;;;;5015812;28;92568;-73
2023/07/11 07:33:43;;;;;;;12.10;3.35;;;;;;;;;;5016160;28;94252;-73
2023/07/11 07:36:11;;;;;;;11.32;3.60;;;;;;;;;;5015583;28;93823;-73
2023/07/11 07:38:39;;;;;;;6.68;2.78;;;;;;;;;;5014160;28;92554;-73
2023/07/11 07:41:06;;;;;;;9.85;2.83;;;;;;;;;;5014524;28;94870;-74
2023/07/11 07:43:36;;;;;;;9.82;2.70;;;;;;;;;;5015275;28;93112;-73
2023/07/11 07:46:03;;;;;;;8.23;2.97;;;;;;;;;;5018513;28;92879;-73
2023/07/11 07:48:30;;;;;;;17.00;2.78;;;;;;;;;;5015156;28;93272;-73
2023/07/11 07:51:02;;;;;;;12.05;2.22;;;;;;;;;;5015181;28;92423;-74
2023/07/11 07:53:29;;;;;;;14.20;2.85;;;;;;;;;;5015464;28;93137;-74
2023/07/11 07:56:01;;;;;;;10.93;2.72;;;;;;;;;;5014608;28;93613;-74
2023/07/11 07:58:27;;;;;;;8.68;2.92;;;;;;;;;;5015773;28;91713;-74
2023/07/11 08:01:08;;;;;;;8.48;2.08;;;;;;;;;;5015693;28;93824;-73
2023/07/11 08:03:37;;;;;;;9.50;2.20;;;;;;;;;;5015310;28;93640;-72
2023/07/11 08:06:04;;;;;;;8.05;2.78;;;;;;;;;;5015669;28;94836;-72
2023/07/11 08:08:43;;;;;;;5.63;2.30;;;;;;;;;;5015114;28;93141;-72
2023/07/11 08:11:10;;;;;;;8.85;2.72;;;;;;;;;;5015039;28;92489;-72
2023/07/11 08:13:36;;;;;;;7.95;2.50;;;;;;;;;;5015299;28;93454;-72
2023/07/11 08:16:23;;;;;;;12.85;2.72;;;;;;;;;;5015075;28;92986;-72
2023/07/11 08:18:58;;;;;;;8.45;2.30;;;;;;;;;;5013908;28;92488;-72
2023/07/11 08:21:25;;;;;;;9.05;2.10;;;;;;;;;;5014968;28;93113;-72
2023/07/11 08:23:52;;;;;;;11.90;2.40;;;;;;;;;;5015211;28;92741;-72
2023/07/11 08:26:19;;;;;;;6.10;2.15;;;;;;;;;;5014474;28;93680;-72
2023/07/11 08:28:46;;;;;;;9.23;2.00;;;;;;;;;;5017640;28;93499;-72
2023/07/11 08:31:12;;;;;;;6.47;1.88;;;;;;;;;;5013224;28;95383;-72
2023/07/11 08:33:39;;;;;;;7.63;2.35;;;;;;;;;;5014751;28;95525;-73
2023/07/11 08:36:05;;;;;;;20.58;2.08;;;;;;;;;;5014475;28;93426;-72
2023/07/11 08:38:31;;;;;;;6.80;1.90;;;;;;;;;;5014545;28;92548;-73
2023/07/11 08:40:58;;;;;;;6.20;2.20;;;;;;;;;;5013282;28;93536;-72
2023/07/11 08:43:28;;;;;;;5.95;2.13;;;;;;;;;;5014282;28;94050;-73
2023/07/11 08:45:58;;;;;;;6.03;1.85;;;;;;;;;;5014535;28;92659;-72
2023/07/11 08:48:42;;;;;;;6.53;2.03;;;;;;;;;;4995074;28;93180;-72
2023/07/11 08:51:21;;;;;;;7.70;1.98;;;;;;;;;;4997680;28;92419;-73
2023/07/11 08:53:50;;;;;;;9.70;2.17;;;;;;;;;;4994360;28;93237;-72
2023/07/11 08:56:22;;;;;;;5.78;2.13;;;;;;;;;;4992524;28;95945;-73
2023/07/11 08:58:49;;;;;;;8.25;2.53;;;;;;;;;;4992760;28;92513;-74
2023/07/11 09:01:31;;;;;;;9.23;2.15;;;;;;;;;;4994336;28;94076;-73
2023/07/11 09:03:59;;;;;;;5.47;1.90;;;;;;;;;;4994204;28;93506;-73
2023/07/11 09:06:30;;;;;;;7.80;2.17;;;;;;;;;;4994451;28;92606;-73
2023/07/11 09:08:57;;;;;;;6.30;2.17;;;;;;;;;;4994372;28;93182;-72
2023/07/11 09:11:31;;;;;;;10.13;2.28;;;;;;;;;;4994188;28;93818;-73
2023/07/11 09:14:00;;;;;;;6.20;2.25;;;;;;;;;;5009980;28;91737;-74
2023/07/11 09:16:39;;;;;;;16.50;2.75;;;;;;;;;;5014293;28;93375;-74
2023/07/11 09:19:06;;;;;;;5.50;2.20;;;;;;;;;;5014133;28;92647;-74
2023/07/11 09:21:50;;;;;;;9.98;2.15;;;;;;;;;;5012661;28;94809;-74
2023/07/11 09:24:30;;;;;;;10.45;2.13;;;;;;;;;;5013473;28;93483;-74
2023/07/11 09:27:17;;;;;;;8.40;2.20;;;;;;;;;;5014051;28;92749;-74
2023/07/11 09:29:45;;;;;;;25.48;1.98;;;;;;;;;;5012480;28;93496;-74
2023/07/11 09:32:11;;;;;;;8.80;2.28;;;;;;;;;;5013876;28;92400;-74
2023/07/11 09:34:41;;;;;;;10.23;2.20;;;;;;;;;;5013317;28;92472;-73
2023/07/11 09:37:23;;;;;;;8.38;2.33;;;;;;;;;;5015389;28;93385;-74
2023/07/11 09:39:53;;;;;;;10.55;2.70;;;;;;;;;;5014675;28;91689;-73
2023/07/11 09:42:40;;;;;;;10.43;2.42;;;;;;;;;;5013802;28;92679;-73
2023/07/11 09:45:10;;;;;;;10.18;2.47;;;;;;;;;;5013498;28;93486;-73
2023/07/11 09:47:38;;;;;;;9.40;2.50;;;;;;;;;;5012262;28;94859;-74
2023/07/11 09:50:15;;;;;;;7.55;2.67;;;;;;;;;;5013734;28;95608;-73
2023/07/11 09:53:00;;;;;;;18.67;3.03;;;;;;;;;;5013294;28;93470;-73
2023/07/11 09:55:34;;;;;;;6.93;2.78;;;;;;;;;;5013456;28;92487;-74
2023/07/11 09:58:01;;;;;;;9.35;2.38;;;;;;;;;;5013601;28;93262;-73
2023/07/11 10:00:28;;;;;;;8.95;2.80;;;;;;;;;;5009936;28;93783;-73
2023/07/11 10:02:57;;;;;;;9.10;2.78;;;;;;;;;;4993537;28;93134;-73
2023/07/11 10:05:23;;;;;;;12.75;2.60;;;;;;;;;;4993919;28;92859;-73
2023/07/11 10:08:00;;;;;;;8.52;2.58;;;;;;;;;;4993434;28;92492;-74
2023/07/11 10:10:26;;;;;;;8.23;3.20;;;;;;;;;;4994221;28;94400;-74
2023/07/11 10:12:53;;;;;;;5.57;2.40;;;;;;;;;;4997817;28;97167;-73
2023/07/11 10:15:23;;;;;;;6.25;2.47;;;;;;;;;;5017083;28;92452;-73
2023/07/11 10:17:49;;;;;;;;;;;;;;;;;;5017991;28;92979;-72
2023/07/11 10:20:17;;;;;;;8.93;2.60;;;;;;;;;;5019551;28;124173;-73
2023/07/11 10:22:50;;;;;;;11.75;2.38;;;;;;;;;;5017168;28;94138;-73
2023/07/11 10:25:21;;;;;;;11.65;2.85;;;;;;;;;;5015279;28;93647;-74
2023/07/11 10:27:52;;;;;;;9.98;2.90;;;;;;;;;;5016558;28;92511;-73
2023/07/11 10:30:25;;;;;;;6.93;2.47;;;;;;;;;;5017401;28;93852;-73
2023/07/11 10:32:57;;;;;;;10.18;2.42;;;;;;;;;;5016154;28;93635;-74
2023/07/11 10:35:39;;;;;;;7.07;2.22;;;;;;;;;;5015407;28;92557;-73
2023/07/11 10:38:11;;;;;;;6.95;2.47;;;;;;;;;;5015241;28;94849;-74
2023/07/11 10:40:38;;;;;;;5.35;2.05;;;;;;;;;;5016574;28;93567;-73
2023/07/11 10:43:23;;;;;;;14.18;2.33;;;;;;;;;;5019670;28;92422;-74
2023/07/11 10:45:51;;;;;;;10.30;2.47;;;;;;;;;;5016326;28;93722;-74
2023/07/11 10:48:17;;;;;;;15.38;2.65;;;;;;;;;;5016675;28;92876;-73
2023/07/11 10:50:46;;;;;;;17.92;2.58;;;;;;;;;;5016443;28;93481;-73
2023/07/11 10:53:20;;;;;;;6.72;2.78;;;;;;;;;;5016034;28;93533;-73
2023/07/11 10:55:50;;;;;;;14.65;2.95;;;;;;;;;;5016742;28;91835;-73
2023/07/11 10:58:17;;;;;;;10.35;2.70;;;;;;;;;;5016153;28;92616;-73
2023/07/11 11:00:50;;;;;;;9.35;2.90;;;;;;;;;;5015800;28;93370;-74
2023/07/11 11:03:39;;;;;;;5.63;2.63;;;;;;;;;;5014452;28;95136;-74
2023/07/11 11:06:25;;;;;;;13.15;2.65;;;;;;;;;;5019676;28;95260;-73
2023/07/11 11:08:53;;;;;;;6.03;2.40;;;;;;;;;;5015842;28;92537;-74
2023/07/11 11:11:35;;;;;;;11.35;2.83;;;;;;;;;;5016284;28;93117;-74
2023/07/11 11:14:12;;;;;;;13.45;2.80;;;;;;;;;;5015767;28;93643;-74
2023/07/11 11:16:52;;;;;;;9.10;2.97;;;;;;;;;;5016225;28;92484;-74
2023/07/11 11:19:30;;;;;;;23.57;3.50;;;;;;;;;;5016213;28;93895;-73
2023/07/11 11:21:56;;;;;;;10.40;3.10;;;;;;;;;;5016066;28;92677;-73
2023/07/11 11:24:33;;;;;;;8.80;2.65;;;;;;;;;;5015751;28;92530;-73
2023/07/11 11:26:59;;;;;;;7.32;2.60;;;;;;;;;;5015363;28;93277;-73
2023/07/11 11:29:35;;;;;;;14.02;2.90;;;;;;;;;;5017169;28;95808;-73
2023/07/11 11:32:15;;;;;;;13.52;3.17;;;;;;;;;;5015984;28;96860;-73
2023/07/11 11:34:47;;;;;;;14.93;3.55;;;;;;;;;;5015502;28;93749;-73
2023/07/11 11:37:36;;;;;;;13.65;2.65;;;;;;;;;;5015688;28;92421;-74
2023/07/11 11:40:15;;;;;;;18.20;3.15;;;;;;;;;;5015500;28;93358;-73
2023/07/11 11:42:43;;;;;;;10.73;2.50;;;;;;;;;;5015470;28;92490;-73
2023/07/11 11:45:15;;;;;;;10.50;2.90;;;;;;;;;;5015129;28;92510;-73
2023/07/11 11:47:45;;;;;;;11.00;2.15;;;;;;;;;;5016402;28;92945;-73
2023/07/11 11:50:16;;;;;;;8.70;3.08;;;;;;;;;;5013110;28;93267;-73
2023/07/11 11:52:45;;;;;;;25.77;3.28;;;;;;;;;;5017077;28;92493;-73
2023/07/11 11:55:25;;;;;;;15.68;2.65;;;;;;;;;;5014022;28;98788;-73
2023/07/11 11:57:51;;;;;;;11.48;3.00;;;;;;;;;;5015311;28;92461;-73
2023/07/11 12:00:37;;;;;;;11.88;3.50;;;;;;;;;;5015066;28;93156;-73
2023/07/11 12:03:04;;;;;;;7.20;2.63;;;;;;;;;;5015170;28;93268;-73
2023/07/11 12:05:32;;;;;;;13.00;2.35;;;;;;;;;;5015403;28;92575;-73
2023/07/11 12:08:18;;;;;;;7.60;2.67;;;;;;;;;;5014148;28;92498;-73
2023/07/11 12:11:02;;;;;;;12.52;2.95;;;;;;;;;;5013974;28;93694;-74
2023/07/11 12:13:30;;;;;;;12.07;3.05;;;;;;;;;;5015642;28;91730;-73
2023/07/11 12:16:00;;;;;;;11.25;2.72;;;;;;;;;;5018207;28;92447;-73
2023/07/11 12:18:28;;;;;;;13.38;2.53;;;;;;;;;;4995415;28;92647;-74
2023/07/11 12:21:13;;;;;;;9.38;2.88;;;;;;;;;;4993440;28;95178;-74
2023/07/11 12:23:42;;;;;;;13.13;2.50;;;;;;;;;;4995192;28;93488;-74
2023/07/11 12:26:19;;;;;;;13.18;2.95;;;;;;;;;;4994888;28;92440;-73
2023/07/11 12:28:46;;;;;;;12.10;2.85;;;;;;;;;;4994974;28;93350;-73
2023/07/11 12:31:25;;;;;;;10.50;2.75;;;;;;;;;;4993463;28;93620;-73
2023/07/11 12:33:58;;;;;;;7.13;2.50;;;;;;;;;;4994250;28;92440;-73
2023/07/11 12:36:39;;;;;;;13.35;3.10;;;;;;;;;;4998338;28;93060;-73
2023/07/11 12:39:10;;;;;;;9.98;2.88;;;;;;;;;;4995297;28;91686;-73
2023/07/11 12:41:45;;;;;;;7.85;2.60;;;;;;;;;;4994633;28;92450;-73
2023/07/11 12:44:13;;;;;;;13.43;2.80;;;;;;;;;;4993953;28;92525;-73
2023/07/11 12:46:41;;;;;;;14.95;3.03;;;;;;;;;;4999309;28;94851;-73
2023/07/11 12:49:20;;;;;;;7.65;2.95;;;;;;;;;;5014341;28;95553;-74
2023/07/11 12:51:46;;;;;;;12.98;2.83;;;;;;;;;;5014301;28;93577;-73
2023/07/11 12:54:14;;;;;;;14.52;2.97;;;;;;;;;;5014804;28;92741;-73
2023/07/11 12:56:43;;;;;;;10.80;3.28;;;;;;;;;;5014178;28;93439;-74
2023/07/11 12:59:19;;;;;;;8.23;3.05;;;;;;;;;;5017591;28;93908;-74
2023/07/11 13:01:45;;;;;;;8.63;2.67;;;;;;;;;;5014548;28;93246;-74
2023/07/11 13:04:20;;;;;;;7.97;2.42;;;;;;;;;;5014617;28;91672;-74
2023/07/11 13:06:54;;;;;;;15.10;3.72;;;;;;;;;;5014891;28;92775;-74
2023/07/11 13:09:22;;;;;;;13.93;2.83;;;;;;;;;;5014486;28;92996;-74
2023/07/11 13:11:48;;;;;;;10.93;2.63;;;;;;;;;;5012213;28;94782;-73
2023/07/11 13:14:15;;;;;;;9.98;2.60;;;;;;;;;;5014613;28;92400;-73
2023/07/11 13:16:42;;;;;;;10.95;2.60;;;;;;;;;;5014607;28;94397;-74
2023/07/11 13:19:21;;;;;;;10.55;2.97;;;;;;;;;;5014302;28;94517;-74
2023/07/11 13:21:48;;;;;;;11.93;3.15;;;;;;;;;;5016950;28;92445;-74
2023/07/11 13:24:20;;;;;;;10.23;3.38;;;;;;;;;;5014069;28;92458;-73
2023/07/11 13:26:50;;;;;;;7.95;2.70;;;;;;;;;;5013412;28;92375;-73
2023/07/11 13:29:18;;;;;;;10.35;2.70;;;;;;;;;;5014450;28;93204;-73
2023/07/11 13:31:45;;;;;;;9.32;3.22;;;;;;;;;;5013960;28;93544;-73
2023/07/11 13:34:16;;;;;;;14.63;2.78;;;;;;;;;;5013770;28;92563;-73
2023/07/11 13:36:44;;;;;;;6.45;2.85;;;;;;;;;;5012231;28;94892;-74
2023/07/11 13:39:14;;;;;;;8.70;2.90;;;;;;;;;;5013803;28;93694;-73
2023/07/11 13:41:45;;;;;;;9.20;2.78;;;;;;;;;;5013643;28;92431;-74
2023/07/11 13:44:15;;;;;;;11.57;2.53;;;;;;;;;;5015729;28;93606;-74
2023/07/11 13:46:43;;;;;;;13.15;2.63;;;;;;;;;;5016476;28;92868;-74
2023/07/11 13:49:15;;;;;;;9.70;2.58;;;;;;;;;;5017461;28;93623;-74
2023/07/11 13:51:41;;;;;;;11.77;3.00;;;;;;;;;;5017261;28;92450;-74
2023/07/11 13:54:21;;;;;;;9.50;2.65;;;;;;;;;;5017693;28;91780;-74
2023/07/11 13:56:48;;;;;;;15.15;3.45;;;;;;;;;;5017179;28;92679;-74
2023/07/11 13:59:14;;;;;;;10.93;3.28;;;;;;;;;;5017085;28;93799;-74
2023/07/11 14:01:41;;;;;;;9.50;3.33;;;;;;;;;;5015594;28;94811;-74
2023/07/11 14:04:19;;;;;;;12.17;2.83;;;;;;;;;;5017320;28;96812;-74
2023/07/11 14:06:46;;;;;;;18.30;3.13;;;;;;;;;;5020082;28;93403;-74
2023/07/11 14:09:13;;;;;;;7.30;3.10;;;;;;;;;;5017331;28;93781;-74
2023/07/11 14:11:42;;;;;;;6.90;2.50;;;;;;;;;;5016819;28;93492;-73
2023/07/11 14:14:13;;;;;;;15.75;2.90;;;;;;;;;;5017230;28;92909;-74
2023/07/11 14:16:58;;;;;;;11.60;2.35;;;;;;;;;;5016071;28;93172;-74
2023/07/11 14:19:32;;;;;;;8.20;2.42;;;;;;;;;;5017280;28;92968;-74
2023/07/11 14:22:01;;;;;;;14.35;2.55;;;;;;;;;;5017039;28;92907;-74
2023/07/11 14:24:27;;;;;;;10.10;2.92;;;;;;;;;;5016971;28;93267;-74
2023/07/11 14:26:54;;;;;;;7.90;2.80;;;;;;;;;;5014708;28;96038;-74
2023/07/11 14:29:26;;;;;;;7.70;2.47;;;;;;;;;;5019833;28;92473;-74
2023/07/11 14:31:53;;;;;;;6.80;2.42;;;;;;;;;;5016370;28;93507;-74
2023/07/11 14:34:20;;;;;;;10.00;2.45;;;;;;;;;;5016929;28;92391;-74
2023/07/11 14:36:46;;;;;;;14.65;2.80;;;;;;;;;;5016328;28;93268;-74
2023/07/11 14:39:14;;;;;;;10.30;2.65;;;;;;;;;;5016352;28;93596;-74
2023/07/11 14:41:41;;;;;;;20.08;3.05;;;;;;;;;;5016628;28;92475;-74
2023/07/11 14:44:23;;;;;;;17.17;2.92;;;;;;;;;;5016047;28;96142;-74
2023/07/11 14:46:50;;;;;;;8.68;2.70;;;;;;;;;;5015341;28;93651;-74
2023/07/11 14:49:19;;;;;;;9.93;2.78;;;;;;;;;;5019314;28;92418;-74